Pen Argyl, Pennsylvania
Current Conditions -  °F | °C
As of 6:51 PM on Saturday 22 Nov 2014 (Local Time) from KABE Reporting Station
Overcast Overcast  
Wind Chill: 35°   Ceiling: 3800
Heat Index: 41°   Visibility: 10mi
Dew Point: 17°   Wind: 10mph
Humidity: 38%   Direction: 230°SW
Pressure: 30.25"   Gusts: NA
Location:  40.87°N, 75.25°W
Report Text: KABE 222351Z 23009KT 10SM BKN038 OVC050 05/M08 A3025 RMK AO2 SLP249 60000 T00501083 10067 20050 58005
Loading
Personal Weather Stations






























Interactive Weather Map New forecast layout! Learn more

10-Day Weather Forecast

Advertisements
Track Severe Weather on mobile